sensor_id;sensor_type;location;lat;lon;timestamp;P1;durP1;ratioP1;P2;durP2;ratioP2
63778;SDS011;49923;55.970;37.516;2022-07-24T00:00:16;80.22;;;46.80;;
63778;SDS011;49923;55.970;37.516;2022-07-24T00:02:42;75.82;;;48.15;;
63778;SDS011;49923;55.970;37.516;2022-07-24T00:05:09;72.88;;;47.40;;
63778;SDS011;49923;55.970;37.516;2022-07-24T00:07:35;77.95;;;47.55;;
63778;SDS011;49923;55.970;37.516;2022-07-24T00:10:02;72.88;;;46.72;;
63778;SDS011;49923;55.970;37.516;2022-07-24T00:12:29;75.75;;;44.78;;
63778;SDS011;49923;55.970;37.516;2022-07-24T00:14:55;80.13;;;45.17;;
63778;SDS011;49923;55.970;37.516;2022-07-24T00:17:22;74.85;;;45.80;;
63778;SDS011;49923;55.970;37.516;2022-07-24T00:19:47;72.30;;;45.60;;
63778;SDS011;49923;55.970;37.516;2022-07-24T00:22:13;71.82;;;44.50;;
63778;SDS011;49923;55.970;37.516;2022-07-24T00:24:40;69.22;;;44.60;;
63778;SDS011;49923;55.970;37.516;2022-07-24T00:27:06;70.97;;;43.33;;
63778;SDS011;49923;55.970;37.516;2022-07-24T00:29:32;67.38;;;42.80;;
63778;SDS011;49923;55.970;37.516;2022-07-24T00:32:00;63.72;;;41.17;;
63778;SDS011;49923;55.970;37.516;2022-07-24T00:34:26;68.40;;;41.60;;
63778;SDS011;49923;55.970;37.516;2022-07-24T00:36:52;71.03;;;42.53;;
63778;SDS011;49923;55.970;37.516;2022-07-24T00:39:18;65.63;;;41.08;;
63778;SDS011;49923;55.970;37.516;2022-07-24T00:41:45;61.90;;;38.25;;
63778;SDS011;49923;55.970;37.516;2022-07-24T00:44:12;58.35;;;37.50;;
63778;SDS011;49923;55.970;37.516;2022-07-24T00:46:40;60.10;;;39.28;;
63778;SDS011;49923;55.970;37.516;2022-07-24T00:49:10;63.25;;;37.33;;
63778;SDS011;49923;55.970;37.516;2022-07-24T00:51:38;51.63;;;37.83;;
63778;SDS011;49923;55.970;37.516;2022-07-24T00:54:07;57.60;;;37.38;;
63778;SDS011;49923;55.970;37.516;2022-07-24T00:56:34;57.33;;;37.95;;
63778;SDS011;49923;55.970;37.516;2022-07-24T00:59:01;56.85;;;38.20;;
63778;SDS011;49923;55.970;37.516;2022-07-24T01:01:27;57.10;;;37.03;;
63778;SDS011;49923;55.970;37.516;2022-07-24T01:03:53;55.65;;;36.95;;
63778;SDS011;49923;55.970;37.516;2022-07-24T01:06:19;58.15;;;36.72;;
63778;SDS011;49923;55.970;37.516;2022-07-24T01:08:46;53.78;;;34.20;;
63778;SDS011;49923;55.970;37.516;2022-07-24T01:11:12;53.47;;;33.75;;
63778;SDS011;49923;55.970;37.516;2022-07-24T01:13:39;52.30;;;34.08;;
63778;SDS011;49923;55.970;37.516;2022-07-24T01:16:06;49.58;;;34.80;;
63778;SDS011;49923;55.970;37.516;2022-07-24T01:18:33;51.00;;;34.05;;
63778;SDS011;49923;55.970;37.516;2022-07-24T01:21:00;49.83;;;33.05;;
63778;SDS011;49923;55.970;37.516;2022-07-24T01:23:26;49.38;;;32.67;;
63778;SDS011;49923;55.970;37.516;2022-07-24T01:25:52;53.92;;;35.17;;
63778;SDS011;49923;55.970;37.516;2022-07-24T01:28:18;56.38;;;34.03;;
63778;SDS011;49923;55.970;37.516;2022-07-24T01:30:44;62.30;;;35.35;;
63778;SDS011;49923;55.970;37.516;2022-07-24T01:33:10;56.72;;;33.00;;
63778;SDS011;49923;55.970;37.516;2022-07-24T01:35:36;52.00;;;32.08;;
63778;SDS011;49923;55.970;37.516;2022-07-24T01:38:02;54.88;;;32.00;;
63778;SDS011;49923;55.970;37.516;2022-07-24T01:40:28;63.85;;;33.08;;
63778;SDS011;49923;55.970;37.516;2022-07-24T01:42:54;51.70;;;32.22;;
63778;SDS011;49923;55.970;37.516;2022-07-24T01:45:20;51.30;;;32.42;;
63778;SDS011;49923;55.970;37.516;2022-07-24T01:47:46;52.67;;;32.97;;
63778;SDS011;49923;55.970;37.516;2022-07-24T01:50:13;51.28;;;33.30;;
63778;SDS011;49923;55.970;37.516;2022-07-24T01:52:40;50.40;;;32.67;;
63778;SDS011;49923;55.970;37.516;2022-07-24T01:55:06;54.60;;;32.28;;
63778;SDS011;49923;55.970;37.516;2022-07-24T01:57:33;50.72;;;31.88;;
63778;SDS011;49923;55.970;37.516;2022-07-24T01:59:59;49.78;;;31.70;;
63778;SDS011;49923;55.970;37.516;2022-07-24T02:02:27;49.50;;;31.33;;
63778;SDS011;49923;55.970;37.516;2022-07-24T02:04:53;48.75;;;32.45;;
63778;SDS011;49923;55.970;37.516;2022-07-24T02:07:19;48.38;;;30.70;;
63778;SDS011;49923;55.970;37.516;2022-07-24T02:09:45;51.38;;;32.90;;
63778;SDS011;49923;55.970;37.516;2022-07-24T02:12:11;49.13;;;31.30;;
63778;SDS011;49923;55.970;37.516;2022-07-24T02:14:37;48.80;;;32.35;;
63778;SDS011;49923;55.970;37.516;2022-07-24T02:17:03;47.50;;;29.83;;
63778;SDS011;49923;55.970;37.516;2022-07-24T02:19:29;49.20;;;31.00;;
63778;SDS011;49923;55.970;37.516;2022-07-24T02:21:55;55.15;;;34.70;;
63778;SDS011;49923;55.970;37.516;2022-07-24T02:24:22;52.53;;;31.70;;
63778;SDS011;49923;55.970;37.516;2022-07-24T02:26:48;46.88;;;30.02;;
63778;SDS011;49923;55.970;37.516;2022-07-24T02:29:14;44.92;;;30.33;;
63778;SDS011;49923;55.970;37.516;2022-07-24T02:31:41;49.55;;;31.85;;
63778;SDS011;49923;55.970;37.516;2022-07-24T02:34:06;53.85;;;31.88;;
63778;SDS011;49923;55.970;37.516;2022-07-24T02:36:32;47.33;;;30.40;;
63778;SDS011;49923;55.970;37.516;2022-07-24T02:38:59;46.00;;;30.27;;
63778;SDS011;49923;55.970;37.516;2022-07-24T02:41:24;50.75;;;30.73;;
63778;SDS011;49923;55.970;37.516;2022-07-24T02:43:50;47.90;;;30.42;;
63778;SDS011;49923;55.970;37.516;2022-07-24T02:46:16;46.67;;;30.40;;
63778;SDS011;49923;55.970;37.516;2022-07-24T02:48:42;49.40;;;29.15;;
63778;SDS011;49923;55.970;37.516;2022-07-24T02:51:08;47.67;;;29.23;;
63778;SDS011;49923;55.970;37.516;2022-07-24T02:53:35;46.30;;;28.65;;
63778;SDS011;49923;55.970;37.516;2022-07-24T02:56:01;41.60;;;29.45;;
63778;SDS011;49923;55.970;37.516;2022-07-24T02:58:27;44.10;;;30.88;;
63778;SDS011;49923;55.970;37.516;2022-07-24T03:00:53;41.95;;;28.95;;
63778;SDS011;49923;55.970;37.516;2022-07-24T03:03:19;41.40;;;30.05;;
63778;SDS011;49923;55.970;37.516;2022-07-24T03:05:45;44.08;;;30.27;;
63778;SDS011;49923;55.970;37.516;2022-07-24T03:08:11;43.25;;;29.80;;
63778;SDS011;49923;55.970;37.516;2022-07-24T03:10:37;41.72;;;29.42;;
63778;SDS011;49923;55.970;37.516;2022-07-24T03:13:03;45.38;;;29.23;;
63778;SDS011;49923;55.970;37.516;2022-07-24T03:15:31;43.55;;;29.90;;
63778;SDS011;49923;55.970;37.516;2022-07-24T03:17:57;40.72;;;28.95;;
63778;SDS011;49923;55.970;37.516;2022-07-24T03:20:24;45.40;;;29.75;;
63778;SDS011;49923;55.970;37.516;2022-07-24T03:22:51;42.92;;;29.48;;
63778;SDS011;49923;55.970;37.516;2022-07-24T03:25:17;44.15;;;29.23;;
63778;SDS011;49923;55.970;37.516;2022-07-24T03:27:43;45.92;;;28.17;;
63778;SDS011;49923;55.970;37.516;2022-07-24T03:30:11;42.92;;;28.73;;
63778;SDS011;49923;55.970;37.516;2022-07-24T03:32:37;40.05;;;29.35;;
63778;SDS011;49923;55.970;37.516;2022-07-24T03:35:04;46.55;;;28.42;;
63778;SDS011;49923;55.970;37.516;2022-07-24T03:37:30;40.13;;;29.38;;
63778;SDS011;49923;55.970;37.516;2022-07-24T03:39:56;41.10;;;27.85;;
63778;SDS011;49923;55.970;37.516;2022-07-24T03:42:22;39.85;;;27.20;;
63778;SDS011;49923;55.970;37.516;2022-07-24T03:44:48;41.97;;;26.65;;
63778;SDS011;49923;55.970;37.516;2022-07-24T03:47:14;39.03;;;26.60;;
63778;SDS011;49923;55.970;37.516;2022-07-24T03:49:40;35.70;;;26.85;;
63778;SDS011;49923;55.970;37.516;2022-07-24T03:52:06;36.42;;;25.92;;
63778;SDS011;49923;55.970;37.516;2022-07-24T03:54:32;46.72;;;26.25;;
63778;SDS011;49923;55.970;37.516;2022-07-24T03:56:58;34.55;;;26.45;;
63778;SDS011;49923;55.970;37.516;2022-07-24T03:59:25;38.47;;;25.15;;
63778;SDS011;49923;55.970;37.516;2022-07-24T04:01:50;33.90;;;24.63;;
63778;SDS011;49923;55.970;37.516;2022-07-24T04:04:16;33.47;;;26.13;;
63778;SDS011;49923;55.970;37.516;2022-07-24T04:06:42;39.13;;;27.00;;
63778;SDS011;49923;55.970;37.516;2022-07-24T04:09:08;40.13;;;27.75;;
63778;SDS011;49923;55.970;37.516;2022-07-24T04:11:34;37.67;;;26.55;;
63778;SDS011;49923;55.970;37.516;2022-07-24T04:14:00;38.03;;;27.13;;
63778;SDS011;49923;55.970;37.516;2022-07-24T04:16:26;36.10;;;25.90;;
63778;SDS011;49923;55.970;37.516;2022-07-24T04:18:52;35.28;;;25.50;;
63778;SDS011;49923;55.970;37.516;2022-07-24T04:21:18;33.50;;;24.52;;
63778;SDS011;49923;55.970;37.516;2022-07-24T04:23:44;35.60;;;23.63;;
63778;SDS011;49923;55.970;37.516;2022-07-24T04:26:10;37.13;;;25.70;;
63778;SDS011;49923;55.970;37.516;2022-07-24T04:28:38;32.47;;;24.60;;
63778;SDS011;49923;55.970;37.516;2022-07-24T04:31:04;36.17;;;23.63;;
63778;SDS011;49923;55.970;37.516;2022-07-24T04:33:30;33.72;;;23.90;;
63778;SDS011;49923;55.970;37.516;2022-07-24T04:35:56;37.85;;;24.38;;
63778;SDS011;49923;55.970;37.516;2022-07-24T04:38:22;32.30;;;22.90;;
63778;SDS011;49923;55.970;37.516;2022-07-24T04:40:48;31.52;;;22.38;;
63778;SDS011;49923;55.970;37.516;2022-07-24T04:43:14;29.88;;;22.17;;
63778;SDS011;49923;55.970;37.516;2022-07-24T04:45:40;31.45;;;22.63;;
63778;SDS011;49923;55.970;37.516;2022-07-24T04:48:05;28.85;;;21.77;;
63778;SDS011;49923;55.970;37.516;2022-07-24T04:50:32;31.85;;;23.15;;
63778;SDS011;49923;55.970;37.516;2022-07-24T04:52:59;30.95;;;21.65;;
63778;SDS011;49923;55.970;37.516;2022-07-24T04:55:25;31.95;;;22.38;;
63778;SDS011;49923;55.970;37.516;2022-07-24T04:57:51;35.00;;;23.20;;
63778;SDS011;49923;55.970;37.516;2022-07-24T05:00:17;30.50;;;22.02;;
63778;SDS011;49923;55.970;37.516;2022-07-24T05:02:43;29.42;;;23.17;;
63778;SDS011;49923;55.970;37.516;2022-07-24T05:05:09;31.92;;;20.88;;
63778;SDS011;49923;55.970;37.516;2022-07-24T05:07:35;28.65;;;20.83;;
63778;SDS011;49923;55.970;37.516;2022-07-24T05:10:01;30.90;;;21.92;;
63778;SDS011;49923;55.970;37.516;2022-07-24T05:12:27;26.10;;;20.63;;
63778;SDS011;49923;55.970;37.516;2022-07-24T05:14:53;30.45;;;23.17;;
63778;SDS011;49923;55.970;37.516;2022-07-24T05:17:19;29.23;;;21.05;;
63778;SDS011;49923;55.970;37.516;2022-07-24T05:19:45;29.63;;;20.25;;
63778;SDS011;49923;55.970;37.516;2022-07-24T05:22:11;26.77;;;20.45;;
63778;SDS011;49923;55.970;37.516;2022-07-24T05:24:37;25.70;;;18.90;;
63778;SDS011;49923;55.970;37.516;2022-07-24T05:27:03;24.50;;;18.90;;
63778;SDS011;49923;55.970;37.516;2022-07-24T05:29:29;23.98;;;18.70;;
63778;SDS011;49923;55.970;37.516;2022-07-24T05:31:55;25.40;;;18.27;;
63778;SDS011;49923;55.970;37.516;2022-07-24T05:34:21;15.90;;;13.60;;
63778;SDS011;49923;55.970;37.516;2022-07-24T05:36:48;20.98;;;14.50;;
63778;SDS011;49923;55.970;37.516;2022-07-24T05:39:14;19.42;;;13.77;;
63778;SDS011;49923;55.970;37.516;2022-07-24T05:41:40;15.32;;;12.70;;
63778;SDS011;49923;55.970;37.516;2022-07-24T05:44:06;17.77;;;13.90;;
63778;SDS011;49923;55.970;37.516;2022-07-24T05:46:35;18.20;;;12.88;;
63778;SDS011;49923;55.970;37.516;2022-07-24T05:49:01;16.55;;;12.07;;
63778;SDS011;49923;55.970;37.516;2022-07-24T05:51:30;16.52;;;12.77;;
63778;SDS011;49923;55.970;37.516;2022-07-24T05:53:56;14.52;;;12.50;;
63778;SDS011;49923;55.970;37.516;2022-07-24T05:56:22;15.82;;;12.05;;
63778;SDS011;49923;55.970;37.516;2022-07-24T05:58:48;14.18;;;11.40;;
63778;SDS011;49923;55.970;37.516;2022-07-24T06:01:14;14.55;;;12.75;;
63778;SDS011;49923;55.970;37.516;2022-07-24T06:03:40;19.67;;;11.82;;
63778;SDS011;49923;55.970;37.516;2022-07-24T06:06:06;14.32;;;11.30;;
63778;SDS011;49923;55.970;37.516;2022-07-24T06:08:32;16.23;;;11.20;;
63778;SDS011;49923;55.970;37.516;2022-07-24T06:10:58;15.55;;;11.60;;
63778;SDS011;49923;55.970;37.516;2022-07-24T06:13:24;15.02;;;11.10;;
63778;SDS011;49923;55.970;37.516;2022-07-24T06:15:50;18.45;;;11.45;;
63778;SDS011;49923;55.970;37.516;2022-07-24T06:18:16;16.52;;;11.13;;
63778;SDS011;49923;55.970;37.516;2022-07-24T06:20:42;12.20;;;10.65;;
63778;SDS011;49923;55.970;37.516;2022-07-24T06:23:08;13.65;;;10.40;;
63778;SDS011;49923;55.970;37.516;2022-07-24T06:25:34;11.50;;;10.30;;
63778;SDS011;49923;55.970;37.516;2022-07-24T06:28:00;11.35;;;9.70;;
63778;SDS011;49923;55.970;37.516;2022-07-24T06:30:27;10.95;;;9.38;;
63778;SDS011;49923;55.970;37.516;2022-07-24T06:32:57;17.40;;;9.50;;
63778;SDS011;49923;55.970;37.516;2022-07-24T06:35:24;11.40;;;9.40;;
63778;SDS011;49923;55.970;37.516;2022-07-24T06:37:52;10.55;;;9.32;;
63778;SDS011;49923;55.970;37.516;2022-07-24T06:40:18;12.57;;;10.02;;
63778;SDS011;49923;55.970;37.516;2022-07-24T06:42:46;10.85;;;8.57;;
63778;SDS011;49923;55.970;37.516;2022-07-24T06:45:13;13.88;;;8.98;;
63778;SDS011;49923;55.970;37.516;2022-07-24T06:47:39;10.40;;;9.05;;
63778;SDS011;49923;55.970;37.516;2022-07-24T06:50:06;12.82;;;9.02;;
63778;SDS011;49923;55.970;37.516;2022-07-24T06:52:32;10.63;;;9.52;;
63778;SDS011;49923;55.970;37.516;2022-07-24T06:54:58;10.32;;;9.13;;
63778;SDS011;49923;55.970;37.516;2022-07-24T06:57:24;10.63;;;9.35;;
63778;SDS011;49923;55.970;37.516;2022-07-24T06:59:53;10.27;;;9.18;;
63778;SDS011;49923;55.970;37.516;2022-07-24T07:02:20;11.18;;;9.20;;
63778;SDS011;49923;55.970;37.516;2022-07-24T07:04:46;11.40;;;8.07;;
63778;SDS011;49923;55.970;37.516;2022-07-24T07:07:13;9.75;;;8.60;;
63778;SDS011;49923;55.970;37.516;2022-07-24T07:09:41;11.75;;;8.77;;
63778;SDS011;49923;55.970;37.516;2022-07-24T07:12:07;10.30;;;8.43;;
63778;SDS011;49923;55.970;37.516;2022-07-24T07:14:34;11.07;;;8.50;;
63778;SDS011;49923;55.970;37.516;2022-07-24T07:17:00;10.95;;;8.40;;
63778;SDS011;49923;55.970;37.516;2022-07-24T07:19:26;11.43;;;8.77;;
63778;SDS011;49923;55.970;37.516;2022-07-24T07:21:52;25.25;;;13.75;;
63778;SDS011;49923;55.970;37.516;2022-07-24T07:24:18;9.07;;;8.10;;
63778;SDS011;49923;55.970;37.516;2022-07-24T07:26:44;12.38;;;8.65;;
63778;SDS011;49923;55.970;37.516;2022-07-24T07:29:10;9.45;;;7.88;;
63778;SDS011;49923;55.970;37.516;2022-07-24T07:31:36;9.23;;;7.82;;
63778;SDS011;49923;55.970;37.516;2022-07-24T07:34:02;11.63;;;8.30;;
63778;SDS011;49923;55.970;37.516;2022-07-24T07:36:28;11.15;;;8.70;;
63778;SDS011;49923;55.970;37.516;2022-07-24T07:38:58;12.23;;;9.13;;
63778;SDS011;49923;55.970;37.516;2022-07-24T07:41:24;9.93;;;8.25;;
63778;SDS011;49923;55.970;37.516;2022-07-24T07:43:50;12.95;;;10.05;;
63778;SDS011;49923;55.970;37.516;2022-07-24T07:46:17;10.73;;;8.65;;
63778;SDS011;49923;55.970;37.516;2022-07-24T07:48:43;10.27;;;9.27;;
63778;SDS011;49923;55.970;37.516;2022-07-24T07:51:09;13.55;;;9.48;;
63778;SDS011;49923;55.970;37.516;2022-07-24T07:53:35;10.05;;;9.05;;
63778;SDS011;49923;55.970;37.516;2022-07-24T07:56:01;12.50;;;9.48;;
63778;SDS011;49923;55.970;37.516;2022-07-24T07:58:27;13.52;;;9.73;;
63778;SDS011;49923;55.970;37.516;2022-07-24T08:00:54;13.65;;;10.20;;
63778;SDS011;49923;55.970;37.516;2022-07-24T08:03:20;16.63;;;10.68;;
63778;SDS011;49923;55.970;37.516;2022-07-24T08:05:46;12.65;;;10.05;;
63778;SDS011;49923;55.970;37.516;2022-07-24T08:08:12;10.70;;;8.88;;
63778;SDS011;49923;55.970;37.516;2022-07-24T08:10:38;9.77;;;8.40;;
63778;SDS011;49923;55.970;37.516;2022-07-24T08:13:04;9.50;;;8.50;;
63778;SDS011;49923;55.970;37.516;2022-07-24T08:15:30;11.07;;;9.20;;
63778;SDS011;49923;55.970;37.516;2022-07-24T08:17:57;12.95;;;9.73;;
63778;SDS011;49923;55.970;37.516;2022-07-24T08:20:24;13.02;;;10.43;;
63778;SDS011;49923;55.970;37.516;2022-07-24T08:22:51;11.73;;;9.60;;
63778;SDS011;49923;55.970;37.516;2022-07-24T08:25:17;13.23;;;9.57;;
63778;SDS011;49923;55.970;37.516;2022-07-24T08:27:44;17.92;;;9.15;;
63778;SDS011;49923;55.970;37.516;2022-07-24T08:30:10;12.13;;;10.48;;
63778;SDS011;49923;55.970;37.516;2022-07-24T08:32:37;11.27;;;9.43;;
63778;SDS011;49923;55.970;37.516;2022-07-24T08:35:03;9.63;;;8.43;;
63778;SDS011;49923;55.970;37.516;2022-07-24T08:37:34;13.13;;;8.25;;
63778;SDS011;49923;55.970;37.516;2022-07-24T08:40:02;9.45;;;8.43;;
63778;SDS011;49923;55.970;37.516;2022-07-24T08:42:29;9.07;;;8.05;;
63778;SDS011;49923;55.970;37.516;2022-07-24T08:44:55;9.18;;;8.27;;
63778;SDS011;49923;55.970;37.516;2022-07-24T08:47:21;11.07;;;8.65;;
63778;SDS011;49923;55.970;37.516;2022-07-24T08:49:48;10.50;;;9.40;;
63778;SDS011;49923;55.970;37.516;2022-07-24T08:52:18;9.38;;;8.40;;
63778;SDS011;49923;55.970;37.516;2022-07-24T08:54:47;10.98;;;8.95;;
63778;SDS011;49923;55.970;37.516;2022-07-24T08:57:13;13.70;;;8.52;;
63778;SDS011;49923;55.970;37.516;2022-07-24T08:59:39;9.98;;;8.55;;
63778;SDS011;49923;55.970;37.516;2022-07-24T09:02:05;9.50;;;8.52;;
63778;SDS011;49923;55.970;37.516;2022-07-24T09:07:19;10.57;;;9.15;;
63778;SDS011;49923;55.970;37.516;2022-07-24T09:10:00;11.18;;;9.43;;
63778;SDS011;49923;55.970;37.516;2022-07-24T09:12:32;9.80;;;8.80;;
63778;SDS011;49923;55.970;37.516;2022-07-24T09:14:59;10.27;;;8.32;;
63778;SDS011;49923;55.970;37.516;2022-07-24T09:17:27;12.60;;;9.25;;
63778;SDS011;49923;55.970;37.516;2022-07-24T09:19:54;10.77;;;9.68;;
63778;SDS011;49923;55.970;37.516;2022-07-24T09:27:31;10.63;;;9.52;;
63778;SDS011;49923;55.970;37.516;2022-07-24T09:29:58;11.90;;;9.70;;
63778;SDS011;49923;55.970;37.516;2022-07-24T09:32:24;18.75;;;9.98;;
63778;SDS011;49923;55.970;37.516;2022-07-24T09:34:52;13.38;;;11.98;;
63778;SDS011;49923;55.970;37.516;2022-07-24T09:37:19;14.43;;;10.73;;
63778;SDS011;49923;55.970;37.516;2022-07-24T09:39:46;37.42;;;19.55;;
63778;SDS011;49923;55.970;37.516;2022-07-24T09:42:12;14.15;;;10.23;;
63778;SDS011;49923;55.970;37.516;2022-07-24T09:44:40;11.32;;;9.80;;
63778;SDS011;49923;55.970;37.516;2022-07-24T09:47:06;30.33;;;20.33;;
63778;SDS011;49923;55.970;37.516;2022-07-24T09:49:34;10.80;;;9.43;;
63778;SDS011;49923;55.970;37.516;2022-07-24T09:54:31;12.50;;;10.60;;
63778;SDS011;49923;55.970;37.516;2022-07-24T09:57:20;11.48;;;10.27;;
63778;SDS011;49923;55.970;37.516;2022-07-24T09:59:45;11.27;;;9.98;;
63778;SDS011;49923;55.970;37.516;2022-07-24T10:02:14;10.13;;;9.13;;
63778;SDS011;49923;55.970;37.516;2022-07-24T10:04:42;10.27;;;8.93;;
63778;SDS011;49923;55.970;37.516;2022-07-24T10:07:09;11.52;;;9.50;;
63778;SDS011;49923;55.970;37.516;2022-07-24T10:09:39;10.98;;;9.85;;
63778;SDS011;49923;55.970;37.516;2022-07-24T10:12:14;11.25;;;8.80;;
63778;SDS011;49923;55.970;37.516;2022-07-24T10:14:42;10.35;;;9.23;;
63778;SDS011;49923;55.970;37.516;2022-07-24T10:17:10;10.68;;;9.57;;
63778;SDS011;49923;55.970;37.516;2022-07-24T10:19:41;10.57;;;8.63;;
63778;SDS011;49923;55.970;37.516;2022-07-24T10:22:21;9.25;;;8.40;;
63778;SDS011;49923;55.970;37.516;2022-07-24T10:27:29;11.02;;;8.93;;
63778;SDS011;49923;55.970;37.516;2022-07-24T10:29:58;9.75;;;7.93;;
63778;SDS011;49923;55.970;37.516;2022-07-24T10:32:26;12.32;;;9.18;;
63778;SDS011;49923;55.970;37.516;2022-07-24T10:37:28;13.57;;;9.50;;
63778;SDS011;49923;55.970;37.516;2022-07-24T10:40:08;9.80;;;8.75;;
63778;SDS011;49923;55.970;37.516;2022-07-24T10:45:34;13.60;;;9.45;;
63778;SDS011;49923;55.970;37.516;2022-07-24T10:48:47;11.50;;;8.70;;
63778;SDS011;49923;55.970;37.516;2022-07-24T10:53:28;8.13;;;7.32;;
63778;SDS011;49923;55.970;37.516;2022-07-24T10:58:51;9.70;;;8.40;;
63778;SDS011;49923;55.970;37.516;2022-07-24T11:06:59;10.27;;;8.55;;
63778;SDS011;49923;55.970;37.516;2022-07-24T11:09:36;16.08;;;8.98;;
63778;SDS011;49923;55.970;37.516;2022-07-24T11:12:27;11.70;;;8.52;;
63778;SDS011;49923;55.970;37.516;2022-07-24T11:15:00;9.25;;;8.30;;
63778;SDS011;49923;55.970;37.516;2022-07-24T11:17:46;12.20;;;9.13;;
63778;SDS011;49923;55.970;37.516;2022-07-24T11:20:17;16.50;;;9.15;;
63778;SDS011;49923;55.970;37.516;2022-07-24T11:22:51;10.52;;;8.13;;
63778;SDS011;49923;55.970;37.516;2022-07-24T11:25:19;12.88;;;8.50;;
63778;SDS011;49923;55.970;37.516;2022-07-24T11:28:11;10.75;;;8.23;;
63778;SDS011;49923;55.970;37.516;2022-07-24T11:30:42;9.13;;;8.20;;
63778;SDS011;49923;55.970;37.516;2022-07-24T11:33:10;10.85;;;8.00;;
63778;SDS011;49923;55.970;37.516;2022-07-24T11:35:37;8.70;;;7.75;;
63778;SDS011;49923;55.970;37.516;2022-07-24T11:38:04;10.65;;;8.07;;
63778;SDS011;49923;55.970;37.516;2022-07-24T11:40:32;12.85;;;8.45;;
63778;SDS011;49923;55.970;37.516;2022-07-24T11:43:00;10.38;;;7.80;;
63778;SDS011;49923;55.970;37.516;2022-07-24T11:45:28;11.25;;;8.10;;
63778;SDS011;49923;55.970;37.516;2022-07-24T11:47:54;9.55;;;8.20;;
63778;SDS011;49923;55.970;37.516;2022-07-24T11:50:21;9.27;;;8.20;;
63778;SDS011;49923;55.970;37.516;2022-07-24T11:52:50;10.15;;;7.60;;
63778;SDS011;49923;55.970;37.516;2022-07-24T11:55:18;10.98;;;7.72;;
63778;SDS011;49923;55.970;37.516;2022-07-24T11:57:46;9.38;;;7.57;;
63778;SDS011;49923;55.970;37.516;2022-07-24T12:00:21;10.57;;;8.30;;
63778;SDS011;49923;55.970;37.516;2022-07-24T12:02:53;8.80;;;7.60;;
63778;SDS011;49923;55.970;37.516;2022-07-24T12:05:23;10.20;;;7.55;;
63778;SDS011;49923;55.970;37.516;2022-07-24T12:07:53;8.48;;;7.57;;
63778;SDS011;49923;55.970;37.516;2022-07-24T12:10:21;9.80;;;7.47;;
63778;SDS011;49923;55.970;37.516;2022-07-24T12:12:49;10.75;;;8.50;;
63778;SDS011;49923;55.970;37.516;2022-07-24T12:15:16;10.50;;;8.43;;
63778;SDS011;49923;55.970;37.516;2022-07-24T12:17:56;11.35;;;7.95;;
63778;SDS011;49923;55.970;37.516;2022-07-24T12:20:33;9.00;;;7.80;;
63778;SDS011;49923;55.970;37.516;2022-07-24T12:23:01;10.45;;;8.23;;
63778;SDS011;49923;55.970;37.516;2022-07-24T12:25:30;10.63;;;7.90;;
63778;SDS011;49923;55.970;37.516;2022-07-24T12:28:06;9.75;;;7.95;;
63778;SDS011;49923;55.970;37.516;2022-07-24T12:30:35;19.00;;;10.25;;
63778;SDS011;49923;55.970;37.516;2022-07-24T12:33:07;10.38;;;9.05;;
63778;SDS011;49923;55.970;37.516;2022-07-24T12:35:52;14.80;;;10.80;;
63778;SDS011;49923;55.970;37.516;2022-07-24T12:38:30;17.17;;;14.02;;
63778;SDS011;49923;55.970;37.516;2022-07-24T12:41:03;22.67;;;19.58;;
63778;SDS011;49923;55.970;37.516;2022-07-24T12:43:29;68.25;;;46.17;;
63778;SDS011;49923;55.970;37.516;2022-07-24T12:46:05;65.75;;;43.63;;
63778;SDS011;49923;55.970;37.516;2022-07-24T12:48:33;47.28;;;31.83;;
63778;SDS011;49923;55.970;37.516;2022-07-24T12:51:03;31.70;;;22.00;;
63778;SDS011;49923;55.970;37.516;2022-07-24T12:53:35;11.52;;;9.00;;
63778;SDS011;49923;55.970;37.516;2022-07-24T12:56:07;11.10;;;8.65;;
63778;SDS011;49923;55.970;37.516;2022-07-24T12:58:48;9.38;;;8.30;;
63778;SDS011;49923;55.970;37.516;2022-07-24T13:01:17;9.95;;;7.55;;
63778;SDS011;49923;55.970;37.516;2022-07-24T13:03:49;10.38;;;7.60;;
63778;SDS011;49923;55.970;37.516;2022-07-24T13:06:38;11.15;;;7.28;;
63778;SDS011;49923;55.970;37.516;2022-07-24T13:09:07;9.60;;;7.15;;
63778;SDS011;49923;55.970;37.516;2022-07-24T13:11:37;9.52;;;7.03;;
63778;SDS011;49923;55.970;37.516;2022-07-24T13:14:04;9.93;;;7.40;;
63778;SDS011;49923;55.970;37.516;2022-07-24T13:16:33;9.70;;;6.95;;
63778;SDS011;49923;55.970;37.516;2022-07-24T13:19:01;7.50;;;6.78;;
63778;SDS011;49923;55.970;37.516;2022-07-24T13:21:27;9.45;;;7.80;;
63778;SDS011;49923;55.970;37.516;2022-07-24T13:23:54;10.57;;;7.90;;
63778;SDS011;49923;55.970;37.516;2022-07-24T13:26:20;8.18;;;7.32;;
63778;SDS011;49923;55.970;37.516;2022-07-24T13:28:46;12.80;;;7.15;;
63778;SDS011;49923;55.970;37.516;2022-07-24T13:31:13;10.85;;;7.32;;
63778;SDS011;49923;55.970;37.516;2022-07-24T13:33:40;9.35;;;7.72;;
63778;SDS011;49923;55.970;37.516;2022-07-24T13:36:06;8.02;;;7.15;;
63778;SDS011;49923;55.970;37.516;2022-07-24T13:38:33;11.23;;;7.60;;
63778;SDS011;49923;55.970;37.516;2022-07-24T13:40:58;9.30;;;7.22;;
63778;SDS011;49923;55.970;37.516;2022-07-24T13:43:24;9.98;;;7.20;;
63778;SDS011;49923;55.970;37.516;2022-07-24T13:45:51;10.18;;;7.35;;
63778;SDS011;49923;55.970;37.516;2022-07-24T13:48:17;9.80;;;7.93;;
63778;SDS011;49923;55.970;37.516;2022-07-24T13:50:43;8.75;;;7.78;;
63778;SDS011;49923;55.970;37.516;2022-07-24T13:53:09;10.55;;;7.90;;
63778;SDS011;49923;55.970;37.516;2022-07-24T13:55:35;11.10;;;7.60;;
63778;SDS011;49923;55.970;37.516;2022-07-24T13:58:02;8.82;;;7.38;;
63778;SDS011;49923;55.970;37.516;2022-07-24T14:00:28;12.45;;;8.25;;
63778;SDS011;49923;55.970;37.516;2022-07-24T14:02:54;9.52;;;7.45;;
63778;SDS011;49923;55.970;37.516;2022-07-24T14:05:22;12.07;;;8.18;;
63778;SDS011;49923;55.970;37.516;2022-07-24T14:07:49;8.65;;;7.50;;
63778;SDS011;49923;55.970;37.516;2022-07-24T14:10:15;9.63;;;7.90;;
63778;SDS011;49923;55.970;37.516;2022-07-24T14:12:41;9.38;;;8.27;;
63778;SDS011;49923;55.970;37.516;2022-07-24T14:15:07;13.10;;;8.43;;
63778;SDS011;49923;55.970;37.516;2022-07-24T14:17:39;12.68;;;9.23;;
63778;SDS011;49923;55.970;37.516;2022-07-24T14:20:07;15.57;;;9.82;;
63778;SDS011;49923;55.970;37.516;2022-07-24T14:22:35;11.00;;;8.18;;
63778;SDS011;49923;55.970;37.516;2022-07-24T14:25:02;8.63;;;7.72;;
63778;SDS011;49923;55.970;37.516;2022-07-24T14:27:29;13.55;;;8.43;;
63778;SDS011;49923;55.970;37.516;2022-07-24T14:29:55;11.35;;;8.05;;
63778;SDS011;49923;55.970;37.516;2022-07-24T14:32:22;11.60;;;7.82;;
63778;SDS011;49923;55.970;37.516;2022-07-24T14:34:48;11.90;;;8.10;;
63778;SDS011;49923;55.970;37.516;2022-07-24T14:37:14;10.90;;;8.10;;
63778;SDS011;49923;55.970;37.516;2022-07-24T14:39:40;10.27;;;8.15;;
63778;SDS011;49923;55.970;37.516;2022-07-24T14:42:07;8.88;;;7.97;;
63778;SDS011;49923;55.970;37.516;2022-07-24T14:44:33;11.93;;;8.57;;
63778;SDS011;49923;55.970;37.516;2022-07-24T14:46:59;12.27;;;8.98;;